createdAt,value
2018-04-12T00:00:16.155Z,16.99
2018-04-12T00:02:43.623Z,17.05
2018-04-12T00:05:11.103Z,17.08
2018-04-12T00:07:38.580Z,17.05
2018-04-12T00:10:06.077Z,17.05
2018-04-12T00:12:33.725Z,17.04
2018-04-12T00:15:01.447Z,16.92
2018-04-12T00:17:28.841Z,16.92
2018-04-12T00:19:56.238Z,16.79
2018-04-12T00:22:23.619Z,16.93
2018-04-12T00:24:51.008Z,16.84
2018-04-12T00:27:18.540Z,16.73
2018-04-12T00:29:46.104Z,16.77
2018-04-12T00:32:13.703Z,16.62
2018-04-12T00:34:41.192Z,16.70
2018-04-12T00:37:09.620Z,16.66
2018-04-12T00:39:37.105Z,16.73
2018-04-12T00:42:04.625Z,16.74
2018-04-12T00:44:32.059Z,16.18
2018-04-12T00:46:59.443Z,16.39
2018-04-12T00:49:26.898Z,16.68
2018-04-12T00:51:54.225Z,16.87
2018-04-12T00:54:21.660Z,16.55
2018-04-12T00:56:49.168Z,16.36
2018-04-12T00:59:16.494Z,16.44
2018-04-12T01:01:43.989Z,16.52
2018-04-12T01:04:11.390Z,16.69
2018-04-12T01:06:38.798Z,16.62
2018-04-12T01:09:06.236Z,16.52
2018-04-12T01:11:33.739Z,16.67
2018-04-12T01:14:01.180Z,16.77
2018-04-12T01:16:28.574Z,16.80
2018-04-12T01:18:55.960Z,16.69
2018-04-12T01:21:23.343Z,16.58
2018-04-12T01:23:50.733Z,16.62
2018-04-12T01:26:18.209Z,16.67
2018-04-12T01:28:45.631Z,16.59
2018-04-12T01:31:13.027Z,16.58
2018-04-12T01:33:40.444Z,16.60
2018-04-12T01:36:07.840Z,16.61
2018-04-12T01:38:35.220Z,16.37
2018-04-12T01:41:02.653Z,16.37
2018-04-12T01:43:30.067Z,16.43
2018-04-12T01:45:57.470Z,16.41
2018-04-12T01:48:24.891Z,16.33
2018-04-12T01:50:52.275Z,16.40
2018-04-12T01:53:19.731Z,16.24
2018-04-12T01:55:47.110Z,16.36
2018-04-12T01:58:14.512Z,16.10
2018-04-12T02:00:41.913Z,16.13
2018-04-12T02:03:09.312Z,16.30
2018-04-12T02:05:36.705Z,16.18
2018-04-12T02:08:04.133Z,16.11
2018-04-12T02:10:31.540Z,15.98
2018-04-12T02:12:59.100Z,16.03
2018-04-12T02:15:26.496Z,16.19
2018-04-12T02:17:53.900Z,16.20
2018-04-12T02:20:21.306Z,16.18
2018-04-12T02:22:48.705Z,16.23
2018-04-12T02:25:16.169Z,16.16
2018-04-12T02:27:43.531Z,16.12
2018-04-12T02:30:10.914Z,16.19
2018-04-12T02:32:38.320Z,16.29
2018-04-12T02:35:05.746Z,16.36
2018-04-12T02:37:33.185Z,16.38
2018-04-12T02:40:00.938Z,16.28
2018-04-12T02:42:28.634Z,16.27
2018-04-12T02:44:56.194Z,16.22
2018-04-12T02:47:23.622Z,16.20
2018-04-12T02:49:51.016Z,16.05
2018-04-12T02:52:18.394Z,16.10
2018-04-12T02:54:45.870Z,16.32
2018-04-12T02:57:13.245Z,16.38
2018-04-12T02:59:40.711Z,16.09
2018-04-12T03:02:08.127Z,16.29
2018-04-12T03:04:35.615Z,16.39
2018-04-12T03:07:03.179Z,16.29
2018-04-12T03:09:30.566Z,16.56
2018-04-12T03:11:58.013Z,16.23
2018-04-12T03:14:25.399Z,16.12
2018-04-12T03:16:52.801Z,16.18
2018-04-12T03:19:20.200Z,16.10
2018-04-12T03:21:47.589Z,16.23
2018-04-12T03:24:14.991Z,16.13
2018-04-12T03:26:42.479Z,16.16
2018-04-12T03:29:09.878Z,16.39
2018-04-12T03:31:37.267Z,16.18
2018-04-12T03:34:04.667Z,16.29
2018-04-12T03:36:32.052Z,16.15
2018-04-12T03:39:00.483Z,16.03
2018-04-12T03:41:27.889Z,16.06
2018-04-12T03:43:55.281Z,16.07
2018-04-12T03:46:22.662Z,16.10
2018-04-12T03:48:50.049Z,16.18
2018-04-12T03:51:17.442Z,16.29
2018-04-12T03:53:44.830Z,16.21
2018-04-12T03:56:12.239Z,16.24
2018-04-12T03:58:39.731Z,16.19
2018-04-12T04:01:07.161Z,16.12
2018-04-12T04:03:34.527Z,16.06
2018-04-12T04:06:01.998Z,16.06
2018-04-12T04:08:29.385Z,16.05
2018-04-12T04:10:56.780Z,15.97
2018-04-12T04:13:24.194Z,16.01
2018-04-12T04:16:03.207Z,16.15
2018-04-12T04:18:42.430Z,15.99
2018-04-12T04:21:09.888Z,15.93
2018-04-12T04:23:37.268Z,15.91
2018-04-12T04:26:04.661Z,15.82
2018-04-12T04:28:32.033Z,15.81
2018-04-12T04:30:59.422Z,15.79
2018-04-12T04:33:26.807Z,15.79
2018-04-12T04:35:54.213Z,15.97
2018-04-12T04:38:21.616Z,16.16
2018-04-12T04:40:49.017Z,16.10
2018-04-12T04:43:16.425Z,16.10
2018-04-12T04:45:43.915Z,16.01
2018-04-12T04:48:11.311Z,16.25
2018-04-12T04:50:38.692Z,16.14
2018-04-12T04:53:06.695Z,16.22
2018-04-12T04:55:34.105Z,16.07
2018-04-12T04:58:01.696Z,16.17
2018-04-12T05:00:29.092Z,16.14
2018-04-12T05:02:56.496Z,16.03
2018-04-12T05:05:23.882Z,16.20
2018-04-12T05:07:51.877Z,16.21
2018-04-12T05:10:19.278Z,16.15
2018-04-12T05:12:46.685Z,15.98
2018-04-12T05:15:14.092Z,15.99
2018-04-12T05:17:41.703Z,16.07
2018-04-12T05:20:09.112Z,16.21
2018-04-12T05:22:36.509Z,16.36
2018-04-12T05:25:03.912Z,16.36
2018-04-12T05:27:31.311Z,16.06
2018-04-12T05:29:58.703Z,16.19
2018-04-12T05:32:26.087Z,16.22
2018-04-12T05:34:53.554Z,16.12
2018-04-12T05:37:20.892Z,16.23
2018-04-12T05:39:48.330Z,16.49
2018-04-12T05:42:15.703Z,16.50
2018-04-12T05:44:43.143Z,16.60
2018-04-12T05:47:10.524Z,16.52
2018-04-12T05:49:38.049Z,16.63
2018-04-12T05:52:05.455Z,16.46
2018-04-12T05:54:32.844Z,16.56
2018-04-12T05:57:00.349Z,16.67
2018-04-12T05:59:27.794Z,16.73
2018-04-12T06:01:55.211Z,16.69
2018-04-12T06:04:22.590Z,16.77
2018-04-12T06:06:49.993Z,16.74
2018-04-12T06:09:17.388Z,16.80
2018-04-12T06:11:44.813Z,16.63
2018-04-12T06:14:12.234Z,16.57
2018-04-12T06:16:44.033Z,16.58
2018-04-12T06:19:11.423Z,16.68
2018-04-12T06:21:38.891Z,16.72
2018-04-12T06:24:06.545Z,16.66
2018-04-12T06:26:33.966Z,16.69
2018-04-12T06:29:01.361Z,16.80
2018-04-12T06:31:28.883Z,16.74
2018-04-12T06:33:56.265Z,16.94
2018-04-12T06:36:23.643Z,16.80
2018-04-12T06:38:51.076Z,16.78
2018-04-12T06:41:18.459Z,16.78
2018-04-12T06:43:45.872Z,17.00
2018-04-12T06:46:13.306Z,17.07
2018-04-12T06:48:40.700Z,17.05
2018-04-12T06:51:08.106Z,17.10
2018-04-12T06:53:35.517Z,17.25
2018-04-12T06:56:02.908Z,17.51
2018-04-12T06:58:30.313Z,17.40
2018-04-12T07:00:57.697Z,17.30
2018-04-12T07:03:25.097Z,17.41
2018-04-12T07:05:52.499Z,17.59
2018-04-12T07:08:19.984Z,17.53
2018-04-12T07:10:47.384Z,17.61
2018-04-12T07:13:14.798Z,17.65
2018-04-12T07:15:42.188Z,17.72
2018-04-12T07:18:09.559Z,17.72
2018-04-12T07:20:36.964Z,17.69
2018-04-12T07:23:04.347Z,17.73
2018-04-12T07:25:31.755Z,17.82
2018-04-12T07:27:59.148Z,17.76
2018-04-12T07:30:26.530Z,17.90
2018-04-12T07:32:53.970Z,18.12
2018-04-12T07:35:21.376Z,18.23
2018-04-12T07:37:48.764Z,18.10
2018-04-12T07:40:16.173Z,18.22
2018-04-12T07:42:43.613Z,18.30
2018-04-12T07:45:11.022Z,18.44
2018-04-12T07:47:38.401Z,18.52
2018-04-12T07:50:05.830Z,18.53
2018-04-12T07:52:33.210Z,18.54
2018-04-12T07:55:00.580Z,18.63
2018-04-12T07:57:27.998Z,18.58
2018-04-12T07:59:55.495Z,18.59
2018-04-12T08:02:22.931Z,18.73
2018-04-12T08:04:50.296Z,18.69
2018-04-12T08:07:17.708Z,18.73
2018-04-12T08:09:45.123Z,18.88
2018-04-12T08:12:12.671Z,18.89
2018-04-12T08:14:40.742Z,18.95
2018-04-12T08:17:08.190Z,19.02
2018-04-12T08:19:35.590Z,19.02
2018-04-12T08:22:03.021Z,19.13
2018-04-12T08:24:30.423Z,19.25
2018-04-12T08:26:57.814Z,19.30
2018-04-12T08:29:25.208Z,19.43
2018-04-12T08:31:52.794Z,19.49
2018-04-12T08:34:20.178Z,19.60
2018-04-12T08:36:47.553Z,19.63
2018-04-12T08:39:14.956Z,19.69
2018-04-12T08:41:42.448Z,19.78
2018-04-12T08:44:09.979Z,20.03
2018-04-12T08:46:37.368Z,19.73
2018-04-12T08:49:04.967Z,19.82
2018-04-12T08:51:32.365Z,20.02
2018-04-12T08:54:00.018Z,19.88
2018-04-12T08:56:27.399Z,20.14
2018-04-12T08:58:54.794Z,20.23
2018-04-12T09:01:22.235Z,20.03
2018-04-12T09:03:49.665Z,20.26
2018-04-12T09:06:17.101Z,20.48
2018-04-12T09:08:44.486Z,20.55
2018-04-12T09:11:11.917Z,20.66
2018-04-12T09:13:39.319Z,20.65
2018-04-12T09:16:06.707Z,20.75
2018-04-12T09:18:34.084Z,20.69
2018-04-12T09:21:01.613Z,20.75
2018-04-12T09:23:28.996Z,20.81
2018-04-12T09:25:56.392Z,20.83
2018-04-12T09:28:23.948Z,21.04
2018-04-12T09:30:51.324Z,21.33
2018-04-12T09:33:18.734Z,21.50
2018-04-12T09:35:46.147Z,21.78
2018-04-12T09:38:13.535Z,21.78
2018-04-12T09:40:40.930Z,21.74
2018-04-12T09:43:08.576Z,21.60
2018-04-12T09:45:35.972Z,21.77
2018-04-12T09:48:03.432Z,22.22
2018-04-12T09:50:30.828Z,22.27
2018-04-12T09:52:58.299Z,21.86
2018-04-12T09:55:25.687Z,21.88
2018-04-12T09:57:53.129Z,21.83
2018-04-12T10:00:26.209Z,21.76
2018-04-12T10:02:55.771Z,22.08
2018-04-12T10:05:29.784Z,22.12
2018-04-12T10:08:02.870Z,21.48
2018-04-12T10:10:30.383Z,21.56
2018-04-12T10:12:57.947Z,21.35
2018-04-12T10:15:26.048Z,21.15
2018-04-12T10:17:53.468Z,21.31
2018-04-12T10:20:20.932Z,21.20
2018-04-12T10:22:48.421Z,21.30
2018-04-12T10:25:15.999Z,21.11
2018-04-12T10:27:43.391Z,21.18
2018-04-12T10:30:10.791Z,20.99
2018-04-12T10:32:38.206Z,21.07
2018-04-12T10:35:05.773Z,21.00
2018-04-12T10:37:33.165Z,21.00
2018-04-12T10:40:00.539Z,21.17
2018-04-12T10:42:28.178Z,21.49
2018-04-12T10:44:55.579Z,21.54
2018-04-12T10:47:22.952Z,21.12
2018-04-12T10:49:50.336Z,21.28
2018-04-12T10:52:17.747Z,21.50
2018-04-12T10:54:45.143Z,21.84
2018-04-12T10:57:12.564Z,21.87
2018-04-12T10:59:39.967Z,21.87
2018-04-12T11:02:07.372Z,21.85
2018-04-12T11:04:34.765Z,21.73
2018-04-12T11:07:02.309Z,21.52
2018-04-12T11:09:29.737Z,21.42
2018-04-12T11:11:57.102Z,21.90
2018-04-12T11:14:24.647Z,21.59
2018-04-12T11:16:53.059Z,21.97
2018-04-12T11:19:20.453Z,22.43
2018-04-12T11:21:47.839Z,22.43
2018-04-12T11:24:15.233Z,22.51
2018-04-12T11:26:42.621Z,22.31
2018-04-12T11:29:10.005Z,22.55
2018-04-12T11:31:37.412Z,22.38
2018-04-12T11:34:04.888Z,22.67
2018-04-12T11:36:33.197Z,22.99
2018-04-12T11:39:00.786Z,23.05
2018-04-12T11:41:28.243Z,23.04
2018-04-12T11:43:55.931Z,23.14
2018-04-12T11:46:23.591Z,23.06
2018-04-12T11:48:51.056Z,23.63
2018-04-12T11:51:18.511Z,23.70
2018-04-12T11:53:46.071Z,23.84
2018-04-12T11:56:13.620Z,24.24
2018-04-12T11:58:41.005Z,24.11
2018-04-12T12:01:08.555Z,24.91
2018-04-12T12:03:35.951Z,24.87
2018-04-12T12:06:03.495Z,25.27
2018-04-12T12:08:30.987Z,25.16
2018-04-12T12:10:58.398Z,24.91
2018-04-12T12:13:25.808Z,26.04
2018-04-12T12:15:53.259Z,26.25
2018-04-12T12:18:20.717Z,24.93
2018-04-12T12:20:48.221Z,24.97
2018-04-12T12:23:15.616Z,24.49
2018-04-12T12:25:43.000Z,24.21
2018-04-12T12:28:10.629Z,23.44
2018-04-12T12:30:38.026Z,23.52
2018-04-12T12:33:05.430Z,23.42
2018-04-12T12:35:32.892Z,23.83
2018-04-12T12:38:00.297Z,23.69
2018-04-12T12:40:27.679Z,23.93
2018-04-12T12:42:55.308Z,23.99
2018-04-12T12:45:22.685Z,23.80
2018-04-12T12:47:50.080Z,24.00
2018-04-12T12:50:17.723Z,24.17
2018-04-12T12:52:45.195Z,24.15
2018-04-12T12:55:12.619Z,24.03
2018-04-12T12:57:39.993Z,23.42
2018-04-12T13:00:07.412Z,24.10
2018-04-12T13:02:34.780Z,23.58
2018-04-12T13:05:02.165Z,23.63
2018-04-12T13:07:29.540Z,23.66
2018-04-12T13:09:56.931Z,23.87
2018-04-12T13:12:24.313Z,23.50
2018-04-12T13:14:51.693Z,23.60
2018-04-12T13:17:19.076Z,23.24
2018-04-12T13:19:46.672Z,22.90
2018-04-12T13:22:14.047Z,23.00
2018-04-12T13:24:41.462Z,22.79
2018-04-12T13:27:08.836Z,22.82
2018-04-12T13:29:36.222Z,23.05
2018-04-12T13:32:05.759Z,23.31
2018-04-12T13:34:33.988Z,23.17
2018-04-12T13:37:01.383Z,23.45
2018-04-12T13:39:28.827Z,22.96
2018-04-12T13:41:56.255Z,23.24
2018-04-12T13:44:23.680Z,23.60
2018-04-12T13:46:51.073Z,24.06
2018-04-12T13:49:18.438Z,25.81
2018-04-12T13:51:45.988Z,24.75
2018-04-12T13:54:13.561Z,24.15
2018-04-12T13:56:41.069Z,23.65
2018-04-12T13:59:08.478Z,23.70
2018-04-12T14:01:35.905Z,23.16
2018-04-12T14:04:03.472Z,23.08
2018-04-12T14:06:30.871Z,24.16
2018-04-12T14:08:58.360Z,24.64
2018-04-12T14:11:25.952Z,25.56
2018-04-12T14:13:53.380Z,24.59
2018-04-12T14:16:20.823Z,25.77
2018-04-12T14:18:48.293Z,25.43
2018-04-12T14:21:15.673Z,24.43
2018-04-12T14:23:43.121Z,24.19
2018-04-12T14:26:10.516Z,24.46
2018-04-12T14:28:37.979Z,24.55
2018-04-12T14:31:05.484Z,24.13
2018-04-12T14:33:32.937Z,24.45
2018-04-12T14:36:00.389Z,24.27
2018-04-12T14:38:27.812Z,24.84
2018-04-12T14:40:58.325Z,25.30
2018-04-12T14:43:25.707Z,25.09
2018-04-12T14:45:53.101Z,25.84
2018-04-12T14:48:20.488Z,26.33
2018-04-12T14:50:47.867Z,26.04
2018-04-12T14:53:15.459Z,26.81
2018-04-12T14:55:42.844Z,25.31
2018-04-12T14:58:10.236Z,24.75
2018-04-12T15:00:37.632Z,24.36
2018-04-12T15:03:05.026Z,24.70
2018-04-12T15:05:32.398Z,24.67
2018-04-12T15:07:59.788Z,25.83
2018-04-12T15:10:27.238Z,26.03
2018-04-12T15:12:54.596Z,26.00
2018-04-12T15:15:21.979Z,25.24
2018-04-12T15:17:49.390Z,26.06
2018-04-12T15:20:17.118Z,27.72
2018-04-12T15:22:44.524Z,27.67
2018-04-12T15:25:12.047Z,26.81
2018-04-12T15:27:39.504Z,27.02
2018-04-12T15:30:06.953Z,25.51
2018-04-12T15:32:34.333Z,25.54
2018-04-12T15:35:01.724Z,25.69
2018-04-12T15:37:29.126Z,25.32
2018-04-12T15:39:58.779Z,24.93
2018-04-12T15:42:28.191Z,24.84
2018-04-12T15:44:55.691Z,25.90
2018-04-12T15:47:23.064Z,26.21
2018-04-12T15:49:50.593Z,25.50
2018-04-12T15:52:18.113Z,24.71
2018-04-12T15:54:45.512Z,26.45
2018-04-12T15:57:13.590Z,25.63
2018-04-12T15:59:41.207Z,24.79
2018-04-12T16:02:08.605Z,24.57
2018-04-12T16:04:35.996Z,25.08
2018-04-12T16:07:03.399Z,25.13
2018-04-12T16:09:30.830Z,25.26
2018-04-12T16:11:58.236Z,25.10
2018-04-12T16:14:25.666Z,25.23
2018-04-12T16:16:53.115Z,25.54
2018-04-12T16:19:20.505Z,25.96
2018-04-12T16:21:47.872Z,25.85
2018-04-12T16:24:15.319Z,25.87
2018-04-12T16:26:42.753Z,26.18
2018-04-12T16:29:10.148Z,26.55
2018-04-12T16:31:37.533Z,26.91
2018-04-12T16:34:04.932Z,27.94
2018-04-12T16:36:32.437Z,28.76
2018-04-12T16:38:59.882Z,28.56
2018-04-12T16:41:27.446Z,27.38
2018-04-12T16:43:54.829Z,26.40
2018-04-12T16:46:22.204Z,26.22
2018-04-12T16:48:49.740Z,26.07
2018-04-12T16:51:17.129Z,25.54
2018-04-12T16:53:44.509Z,25.18
2018-04-12T16:56:11.985Z,24.93
2018-04-12T16:58:39.387Z,24.53
2018-04-12T17:01:07.130Z,24.66
2018-04-12T17:03:35.471Z,24.46
2018-04-12T17:06:02.857Z,24.23
2018-04-12T17:08:30.256Z,23.86
2018-04-12T17:10:57.636Z,23.47
2018-04-12T17:13:25.035Z,23.34
2018-04-12T17:15:52.456Z,23.28
2018-04-12T17:18:19.857Z,23.25
2018-04-12T17:20:47.255Z,23.48
2018-04-12T17:23:14.737Z,23.04
2018-04-12T17:25:42.757Z,23.06
2018-04-12T17:28:10.152Z,23.25
2018-04-12T17:30:38.520Z,23.15
2018-04-12T17:33:05.907Z,23.24
2018-04-12T17:35:33.383Z,23.10
2018-04-12T17:38:00.755Z,22.74
2018-04-12T17:40:28.137Z,22.63
2018-04-12T17:42:55.607Z,22.62
2018-04-12T17:45:22.954Z,22.55
2018-04-12T17:47:50.349Z,22.50
2018-04-12T17:50:17.760Z,22.31
2018-04-12T17:52:45.140Z,22.61
2018-04-12T17:55:12.541Z,22.32
2018-04-12T17:57:39.931Z,22.50
2018-04-12T18:00:07.325Z,22.64
2018-04-12T18:02:34.713Z,22.60
2018-04-12T18:05:02.120Z,22.59
2018-04-12T18:07:29.521Z,22.25
2018-04-12T18:09:56.923Z,21.80
2018-04-12T18:12:24.321Z,21.75
2018-04-12T18:14:57.037Z,21.77
2018-04-12T18:17:33.841Z,21.74
2018-04-12T18:20:01.398Z,21.57
2018-04-12T18:22:28.768Z,21.50
2018-04-12T18:24:56.192Z,21.58
2018-04-12T18:27:23.611Z,21.40
2018-04-12T18:29:51.017Z,21.40
2018-04-12T18:32:18.388Z,21.42
2018-04-12T18:34:45.799Z,21.57
2018-04-12T18:37:13.223Z,21.54
2018-04-12T18:39:40.646Z,21.51
2018-04-12T18:42:08.032Z,21.52
2018-04-12T18:44:35.691Z,21.25
2018-04-12T18:47:03.083Z,21.10
2018-04-12T18:49:30.468Z,21.03
2018-04-12T18:51:57.868Z,21.33
2018-04-12T18:54:25.297Z,21.37
2018-04-12T18:56:52.720Z,21.41
2018-04-12T18:59:20.168Z,21.40
2018-04-12T19:01:47.581Z,21.53
2018-04-12T19:04:14.969Z,21.52
2018-04-12T19:06:42.576Z,21.49
2018-04-12T19:09:09.965Z,21.45
2018-04-12T19:11:37.376Z,21.27
2018-04-12T19:14:04.761Z,21.24
2018-04-12T19:16:32.169Z,21.47
2018-04-12T19:18:59.589Z,21.51
2018-04-12T19:21:27.012Z,21.52
2018-04-12T19:23:54.378Z,21.31
2018-04-12T19:26:21.793Z,21.33
2018-04-12T19:28:49.176Z,21.09
2018-04-12T19:31:16.657Z,20.89
2018-04-12T19:33:44.049Z,20.68
2018-04-12T19:36:11.452Z,20.59
2018-04-12T19:38:39.784Z,20.77
2018-04-12T19:41:07.185Z,20.87
2018-04-12T19:43:34.627Z,20.60
2018-04-12T19:46:02.044Z,20.34
2018-04-12T19:48:29.439Z,20.20
2018-04-12T19:50:56.877Z,20.00
2018-04-12T19:53:24.264Z,20.16
2018-04-12T19:55:51.656Z,20.37
2018-04-12T19:58:19.708Z,20.44
2018-04-12T20:00:47.098Z,19.95
2018-04-12T20:16:19.779Z,20.53
2018-04-12T20:18:47.268Z,20.54
2018-04-12T20:21:14.671Z,20.48
2018-04-12T20:23:42.254Z,20.44
2018-04-12T20:26:09.686Z,20.36
2018-04-12T20:28:37.082Z,20.30
2018-04-12T20:31:04.500Z,20.27
2018-04-12T20:33:31.961Z,20.32
2018-04-12T20:35:59.375Z,20.12
2018-04-12T20:38:26.777Z,20.11
2018-04-12T20:40:54.161Z,20.18
2018-04-12T20:43:21.707Z,20.03
2018-04-12T20:45:49.107Z,20.12
2018-04-12T20:48:16.503Z,20.14
2018-04-12T20:50:43.897Z,19.68
2018-04-12T20:53:11.285Z,20.00
2018-04-12T20:55:38.675Z,20.08
2018-04-12T20:58:06.060Z,19.87
2018-04-12T21:00:33.456Z,19.71
2018-04-12T21:03:00.869Z,19.92
2018-04-12T21:05:28.267Z,19.88
2018-04-12T21:07:55.673Z,19.61
2018-04-12T21:10:23.157Z,19.79
2018-04-12T21:12:50.563Z,19.68
2018-04-12T21:15:17.966Z,19.77
2018-04-12T21:17:45.466Z,19.69
2018-04-12T21:20:12.823Z,19.60
2018-04-12T21:22:40.225Z,19.56
2018-04-12T21:25:07.653Z,19.52
2018-04-12T21:27:35.017Z,19.46
2018-04-12T21:30:02.407Z,19.31
2018-04-12T21:32:29.812Z,19.21
2018-04-12T21:34:57.200Z,19.34
2018-04-12T21:37:24.648Z,19.30
2018-04-12T21:39:51.997Z,19.38
2018-04-12T21:42:19.775Z,19.30
2018-04-12T21:44:47.169Z,19.28
2018-04-12T21:47:14.579Z,19.12
2018-04-12T21:49:42.111Z,19.16
2018-04-12T21:52:09.433Z,18.99
2018-04-12T21:54:37.028Z,19.25
2018-04-12T21:57:04.448Z,19.19
2018-04-12T21:59:31.835Z,19.01
2018-04-12T22:01:59.244Z,19.14
2018-04-12T22:04:26.647Z,18.79
2018-04-12T22:06:54.137Z,18.97
2018-04-12T22:09:21.531Z,18.72
2018-04-12T22:11:48.932Z,18.93
2018-04-12T22:14:16.338Z,18.85
2018-04-12T22:16:44.615Z,18.99
2018-04-12T22:19:11.997Z,18.75
2018-04-12T22:21:39.399Z,18.65
2018-04-12T22:24:06.807Z,18.75
2018-04-12T22:26:34.312Z,18.81
2018-04-12T22:29:01.756Z,18.67
2018-04-12T22:31:29.198Z,18.84
2018-04-12T22:33:56.675Z,18.75
2018-04-12T22:36:24.064Z,18.72
2018-04-12T22:38:51.464Z,18.71
2018-04-12T22:41:18.872Z,18.57
2018-04-12T22:43:46.275Z,18.58
2018-04-12T22:46:13.655Z,18.34
2018-04-12T22:48:41.090Z,18.57
2018-04-12T22:51:08.486Z,18.47
2018-04-12T22:53:35.881Z,18.57
2018-04-12T22:56:03.528Z,18.45
2018-04-12T22:58:31.319Z,18.43
2018-04-12T23:00:58.689Z,18.45
2018-04-12T23:03:26.068Z,18.32
2018-04-12T23:05:53.470Z,18.07
2018-04-12T23:08:20.868Z,18.13
2018-04-12T23:10:48.268Z,18.16
2018-04-12T23:13:15.657Z,18.18
2018-04-12T23:15:43.102Z,17.99
2018-04-12T23:18:10.483Z,18.06
2018-04-12T23:20:37.886Z,18.05
2018-04-12T23:23:05.259Z,17.79
2018-04-12T23:25:32.833Z,17.91
2018-04-12T23:28:00.229Z,18.00
2018-04-12T23:30:27.685Z,18.12
2018-04-12T23:32:55.730Z,17.86
2018-04-12T23:35:23.141Z,17.94
2018-04-12T23:37:50.616Z,17.78
2018-04-12T23:40:18.016Z,17.52
2018-04-12T23:42:45.464Z,17.45
2018-04-12T23:45:12.880Z,17.42
2018-04-12T23:47:40.324Z,17.53
2018-04-12T23:50:07.705Z,17.35
2018-04-12T23:52:35.092Z,17.19
2018-04-12T23:55:02.505Z,17.29
2018-04-12T23:57:29.959Z,17.28
2018-04-12T23:59:57.393Z,17.30
